sensor_id;sensor_type;location;lat;lon;timestamp;temperature;humidity
73509;SHT30;61750;55.036;73.312;2023-02-28T00:00:56;-2.06;81.08
73509;SHT30;61750;55.036;73.312;2023-02-28T00:03:27;-2.06;81.15
73509;SHT30;61750;55.036;73.312;2023-02-28T00:05:53;-2.06;81.09
73509;SHT30;61750;55.036;73.312;2023-02-28T00:08:29;-2.06;81.10
73509;SHT30;61750;55.036;73.312;2023-02-28T00:11:06;-2.06;81.26
73509;SHT30;61750;55.036;73.312;2023-02-28T00:13:37;-2.06;81.27
73509;SHT30;61750;55.036;73.312;2023-02-28T00:16:05;-2.09;81.31
73509;SHT30;61750;55.036;73.312;2023-02-28T00:18:41;-2.09;81.39
73509;SHT30;61750;55.036;73.312;2023-02-28T00:21:07;-2.09;81.44
73509;SHT30;61750;55.036;73.312;2023-02-28T00:23:34;-2.12;81.68
73509;SHT30;61750;55.036;73.312;2023-02-28T00:26:10;-2.09;81.79
73509;SHT30;61750;55.036;73.312;2023-02-28T00:28:46;-2.14;81.87
73509;SHT30;61750;55.036;73.312;2023-02-28T00:31:12;-2.14;82.06
73509;SHT30;61750;55.036;73.312;2023-02-28T00:33:38;-2.13;82.11
73509;SHT30;61750;55.036;73.312;2023-02-28T00:36:05;-2.18;82.15
73509;SHT30;61750;55.036;73.312;2023-02-28T00:38:35;-2.22;82.37
73509;SHT30;61750;55.036;73.312;2023-02-28T00:41:04;-2.22;82.41
73509;SHT30;61750;55.036;73.312;2023-02-28T00:43:32;-2.26;82.33
73509;SHT30;61750;55.036;73.312;2023-02-28T00:45:58;-2.23;82.39
73509;SHT30;61750;55.036;73.312;2023-02-28T00:48:30;-2.23;82.33
73509;SHT30;61750;55.036;73.312;2023-02-28T00:51:06;-2.23;82.32
73509;SHT30;61750;55.036;73.312;2023-02-28T00:53:41;-2.23;82.31
73509;SHT30;61750;55.036;73.312;2023-02-28T00:56:07;-2.26;82.22
73509;SHT30;61750;55.036;73.312;2023-02-28T00:58:33;-2.28;82.13
73509;SHT30;61750;55.036;73.312;2023-02-28T01:01:00;-2.25;82.11
73509;SHT30;61750;55.036;73.312;2023-02-28T01:03:26;-2.23;82.02
73509;SHT30;61750;55.036;73.312;2023-02-28T01:05:56;-2.25;81.95
73509;SHT30;61750;55.036;73.312;2023-02-28T01:08:27;-2.23;81.89
73509;SHT30;61750;55.036;73.312;2023-02-28T01:10:53;-2.20;81.95
73509;SHT30;61750;55.036;73.312;2023-02-28T01:13:19;-2.20;81.87
73509;SHT30;61750;55.036;73.312;2023-02-28T01:15:48;-2.19;81.78
73509;SHT30;61750;55.036;73.312;2023-02-28T01:18:14;-2.19;81.50
73509;SHT30;61750;55.036;73.312;2023-02-28T01:20:41;-2.13;81.53
73509;SHT30;61750;55.036;73.312;2023-02-28T01:23:08;-2.10;81.33
73509;SHT30;61750;55.036;73.312;2023-02-28T01:25:35;-2.09;81.21
73509;SHT30;61750;55.036;73.312;2023-02-28T01:28:08;-2.10;81.07
73509;SHT30;61750;55.036;73.312;2023-02-28T01:30:35;-2.09;80.98
73509;SHT30;61750;55.036;73.312;2023-02-28T01:33:01;-2.10;81.03
73509;SHT30;61750;55.036;73.312;2023-02-28T01:35:27;-2.07;81.00
73509;SHT30;61750;55.036;73.312;2023-02-28T01:37:58;-2.05;81.08
73509;SHT30;61750;55.036;73.312;2023-02-28T01:40:24;-2.09;81.14
73509;SHT30;61750;55.036;73.312;2023-02-28T01:43:00;-2.07;81.16
73509;SHT30;61750;55.036;73.312;2023-02-28T01:45:27;-2.03;81.12
73509;SHT30;61750;55.036;73.312;2023-02-28T01:48:00;-2.05;80.74
73509;SHT30;61750;55.036;73.312;2023-02-28T01:50:34;-2.07;80.68
73509;SHT30;61750;55.036;73.312;2023-02-28T01:53:04;-2.03;80.58
73509;SHT30;61750;55.036;73.312;2023-02-28T01:55:31;-2.03;80.31
73509;SHT30;61750;55.036;73.312;2023-02-28T01:58:08;-1.98;80.08
73509;SHT30;61750;55.036;73.312;2023-02-28T02:00:35;-2.05;79.81
73509;SHT30;61750;55.036;73.312;2023-02-28T02:03:12;-2.02;79.66
73509;SHT30;61750;55.036;73.312;2023-02-28T02:05:43;-2.02;79.42
73509;SHT30;61750;55.036;73.312;2023-02-28T02:08:15;-2.02;79.08
73509;SHT30;61750;55.036;73.312;2023-02-28T02:11:03;-2.02;78.93
73509;SHT30;61750;55.036;73.312;2023-02-28T02:19:10;-1.98;78.63
73509;SHT30;61750;55.036;73.312;2023-02-28T02:24:32;-1.96;78.59
73509;SHT30;61750;55.036;73.312;2023-02-28T02:27:17;-1.92;78.54
73509;SHT30;61750;55.036;73.312;2023-02-28T02:35:47;-1.88;78.55
73509;SHT30;61750;55.036;73.312;2023-02-28T02:38:29;-1.86;78.65
73509;SHT30;61750;55.036;73.312;2023-02-28T02:46:18;-1.86;79.42
73509;SHT30;61750;55.036;73.312;2023-02-28T02:48:45;-1.88;79.60
73509;SHT30;61750;55.036;73.312;2023-02-28T02:51:19;-1.81;79.50
73509;SHT30;61750;55.036;73.312;2023-02-28T02:53:50;-1.82;79.18
73509;SHT30;61750;55.036;73.312;2023-02-28T02:56:18;-1.86;79.17
73509;SHT30;61750;55.036;73.312;2023-02-28T02:58:58;-1.82;78.87
73509;SHT30;61750;55.036;73.312;2023-02-28T03:01:32;-1.83;79.03
73509;SHT30;61750;55.036;73.312;2023-02-28T03:04:02;-1.79;79.18
73509;SHT30;61750;55.036;73.312;2023-02-28T03:06:28;-1.79;79.17
73509;SHT30;61750;55.036;73.312;2023-02-28T03:08:54;-1.88;79.50
73509;SHT30;61750;55.036;73.312;2023-02-28T03:11:36;-1.96;79.99
73509;SHT30;61750;55.036;73.312;2023-02-28T03:14:25;-1.96;80.55
73509;SHT30;61750;55.036;73.312;2023-02-28T03:17:11;-2.01;80.59
73509;SHT30;61750;55.036;73.312;2023-02-28T03:23:09;-2.10;80.48
73509;SHT30;61750;55.036;73.312;2023-02-28T03:25:43;-2.16;80.58
73509;SHT30;61750;55.036;73.312;2023-02-28T03:28:15;-2.23;80.66
73509;SHT30;61750;55.036;73.312;2023-02-28T03:31:01;-2.34;81.19
73509;SHT30;61750;55.036;73.312;2023-02-28T03:33:47;-2.33;81.85
73509;SHT30;61750;55.036;73.312;2023-02-28T03:36:22;-2.40;81.89
73509;SHT30;61750;55.036;73.312;2023-02-28T03:38:51;-2.46;82.06
73509;SHT30;61750;55.036;73.312;2023-02-28T03:41:28;-2.47;82.51
73509;SHT30;61750;55.036;73.312;2023-02-28T03:43:58;-2.46;82.77
73509;SHT30;61750;55.036;73.312;2023-02-28T03:46:25;-2.47;82.77
73509;SHT30;61750;55.036;73.312;2023-02-28T03:48:57;-2.50;82.79
73509;SHT30;61750;55.036;73.312;2023-02-28T03:51:26;-2.49;83.09
73509;SHT30;61750;55.036;73.312;2023-02-28T03:53:54;-2.52;82.87
73509;SHT30;61750;55.036;73.312;2023-02-28T03:56:22;-2.50;82.89
73509;SHT30;61750;55.036;73.312;2023-02-28T03:59:02;-2.47;83.05
73509;SHT30;61750;55.036;73.312;2023-02-28T04:03:56;-2.29;82.94
73509;SHT30;61750;55.036;73.312;2023-02-28T04:06:23;-2.26;82.52
73509;SHT30;61750;55.036;73.312;2023-02-28T04:08:49;-2.19;82.61
73509;SHT30;61750;55.036;73.312;2023-02-28T04:13:47;-2.16;81.77
73509;SHT30;61750;55.036;73.312;2023-02-28T04:16:13;-2.22;81.93
73509;SHT30;61750;55.036;73.312;2023-02-28T04:18:39;-2.23;81.94
73509;SHT30;61750;55.036;73.312;2023-02-28T04:21:06;-2.12;82.12
73509;SHT30;61750;55.036;73.312;2023-02-28T04:23:32;-2.02;82.18
73509;SHT30;61750;55.036;73.312;2023-02-28T04:25:58;-1.95;81.80
73509;SHT30;61750;55.036;73.312;2023-02-28T04:28:25;-2.03;81.19
73509;SHT30;61750;55.036;73.312;2023-02-28T04:30:58;-2.10;81.38
73509;SHT30;61750;55.036;73.312;2023-02-28T04:33:25;-2.10;81.60
73509;SHT30;61750;55.036;73.312;2023-02-28T04:36:12;-2.12;81.26
73509;SHT30;61750;55.036;73.312;2023-02-28T04:38:38;-1.99;81.60
73509;SHT30;61750;55.036;73.312;2023-02-28T04:41:14;-2.02;80.82
73509;SHT30;61750;55.036;73.312;2023-02-28T04:43:40;-1.88;81.28
73509;SHT30;61750;55.036;73.312;2023-02-28T04:46:07;-1.88;80.88
73509;SHT30;61750;55.036;73.312;2023-02-28T04:48:34;-1.81;80.90
73509;SHT30;61750;55.036;73.312;2023-02-28T04:51:01;-1.79;80.87
73509;SHT30;61750;55.036;73.312;2023-02-28T04:53:38;-1.75;80.93
73509;SHT30;61750;55.036;73.312;2023-02-28T04:56:05;-1.77;80.27
73509;SHT30;61750;55.036;73.312;2023-02-28T04:58:32;-1.64;80.79
73509;SHT30;61750;55.036;73.312;2023-02-28T05:01:05;-1.62;80.22
73509;SHT30;61750;55.036;73.312;2023-02-28T05:03:42;-1.51;80.19
73509;SHT30;61750;55.036;73.312;2023-02-28T05:06:19;-1.52;79.89
73509;SHT30;61750;55.036;73.312;2023-02-28T05:08:46;-1.52;79.53
73509;SHT30;61750;55.036;73.312;2023-02-28T05:11:14;-1.48;79.76
73509;SHT30;61750;55.036;73.312;2023-02-28T05:13:40;-1.52;79.22
73509;SHT30;61750;55.036;73.312;2023-02-28T05:16:06;-1.45;80.02
73509;SHT30;61750;55.036;73.312;2023-02-28T05:18:32;-1.47;79.51
73509;SHT30;61750;55.036;73.312;2023-02-28T05:21:03;-1.50;79.52
73509;SHT30;61750;55.036;73.312;2023-02-28T05:23:40;-1.52;79.51
73509;SHT30;61750;55.036;73.312;2023-02-28T05:26:16;-1.57;79.15
73509;SHT30;61750;55.036;73.312;2023-02-28T05:28:42;-1.59;79.29
73509;SHT30;61750;55.036;73.312;2023-02-28T05:31:14;-1.65;79.47
73509;SHT30;61750;55.036;73.312;2023-02-28T05:33:40;-1.64;79.31
73509;SHT30;61750;55.036;73.312;2023-02-28T05:36:06;-1.58;79.25
73509;SHT30;61750;55.036;73.312;2023-02-28T05:38:37;-1.48;78.99
73509;SHT30;61750;55.036;73.312;2023-02-28T05:41:13;-1.48;78.35
73509;SHT30;61750;55.036;73.312;2023-02-28T05:43:39;-1.50;78.39
73509;SHT30;61750;55.036;73.312;2023-02-28T05:46:10;-1.54;78.39
73509;SHT30;61750;55.036;73.312;2023-02-28T05:48:37;-1.55;78.41
73509;SHT30;61750;55.036;73.312;2023-02-28T05:51:07;-1.54;78.30
73509;SHT30;61750;55.036;73.312;2023-02-28T05:53:39;-1.64;78.24
73509;SHT30;61750;55.036;73.312;2023-02-28T05:56:05;-1.71;78.45
73509;SHT30;61750;55.036;73.312;2023-02-28T05:58:31;-1.75;78.46
73509;SHT30;61750;55.036;73.312;2023-02-28T06:00:58;-1.69;78.65
73509;SHT30;61750;55.036;73.312;2023-02-28T06:03:34;-1.64;78.52
73509;SHT30;61750;55.036;73.312;2023-02-28T06:06:01;-1.58;78.06
73509;SHT30;61750;55.036;73.312;2023-02-28T06:08:27;-1.62;77.90
73509;SHT30;61750;55.036;73.312;2023-02-28T06:10:53;-1.55;77.75
73509;SHT30;61750;55.036;73.312;2023-02-28T06:13:19;-1.47;77.68
73509;SHT30;61750;55.036;73.312;2023-02-28T06:15:48;-1.25;77.70
73509;SHT30;61750;55.036;73.312;2023-02-28T06:18:32;-1.24;76.78
73509;SHT30;61750;55.036;73.312;2023-02-28T06:20:58;-1.10;77.21
73509;SHT30;61750;55.036;73.312;2023-02-28T06:23:24;-1.08;76.34
73509;SHT30;61750;55.036;73.312;2023-02-28T06:25:50;-1.04;76.43
73509;SHT30;61750;55.036;73.312;2023-02-28T06:28:21;-0.84;76.10
73509;SHT30;61750;55.036;73.312;2023-02-28T06:30:50;-0.76;76.16
73509;SHT30;61750;55.036;73.312;2023-02-28T06:33:21;-0.80;76.03
73509;SHT30;61750;55.036;73.312;2023-02-28T06:35:49;-0.79;76.13
73509;SHT30;61750;55.036;73.312;2023-02-28T06:38:15;-0.72;76.05
73509;SHT30;61750;55.036;73.312;2023-02-28T06:40:42;-0.65;76.00
73509;SHT30;61750;55.036;73.312;2023-02-28T06:43:13;-0.72;76.22
73509;SHT30;61750;55.036;73.312;2023-02-28T06:45:43;-0.65;76.48
73509;SHT30;61750;55.036;73.312;2023-02-28T06:48:14;-0.62;76.17
73509;SHT30;61750;55.036;73.312;2023-02-28T06:50:45;-0.43;76.27
73509;SHT30;61750;55.036;73.312;2023-02-28T06:53:21;-0.39;75.61
73509;SHT30;61750;55.036;73.312;2023-02-28T06:55:47;-0.40;75.73
73509;SHT30;61750;55.036;73.312;2023-02-28T06:58:15;-0.38;75.75
73509;SHT30;61750;55.036;73.312;2023-02-28T07:00:53;-0.38;75.67
73509;SHT30;61750;55.036;73.312;2023-02-28T07:03:20;-0.30;75.75
73509;SHT30;61750;55.036;73.312;2023-02-28T07:05:49;-0.35;75.69
73509;SHT30;61750;55.036;73.312;2023-02-28T07:08:16;-0.38;75.55
73509;SHT30;61750;55.036;73.312;2023-02-28T07:10:42;-0.33;75.30
73509;SHT30;61750;55.036;73.312;2023-02-28T07:13:08;-0.35;75.45
73509;SHT30;61750;55.036;73.312;2023-02-28T07:15:39;-0.40;75.37
73509;SHT30;61750;55.036;73.312;2023-02-28T07:18:11;-0.46;75.76
73509;SHT30;61750;55.036;73.312;2023-02-28T07:20:37;-0.46;75.87
73509;SHT30;61750;55.036;73.312;2023-02-28T07:23:03;-0.45;75.49
73509;SHT30;61750;55.036;73.312;2023-02-28T07:25:29;-0.36;75.73
73509;SHT30;61750;55.036;73.312;2023-02-28T07:27:55;-0.45;75.26
73509;SHT30;61750;55.036;73.312;2023-02-28T07:30:30;-0.58;75.24
73509;SHT30;61750;55.036;73.312;2023-02-28T07:33:01;-0.65;75.71
73509;SHT30;61750;55.036;73.312;2023-02-28T07:35:27;-0.63;75.52
73509;SHT30;61750;55.036;73.312;2023-02-28T07:37:58;-0.59;75.61
73509;SHT30;61750;55.036;73.312;2023-02-28T07:40:24;-0.60;75.65
73509;SHT30;61750;55.036;73.312;2023-02-28T07:43:01;-0.62;75.74
73509;SHT30;61750;55.036;73.312;2023-02-28T07:45:27;-0.59;75.57
73509;SHT30;61750;55.036;73.312;2023-02-28T07:47:58;-0.65;75.41
73509;SHT30;61750;55.036;73.312;2023-02-28T07:50:24;-0.66;75.82
73509;SHT30;61750;55.036;73.312;2023-02-28T07:52:58;-0.70;75.85
73509;SHT30;61750;55.036;73.312;2023-02-28T07:55:24;-0.76;76.00
73509;SHT30;61750;55.036;73.312;2023-02-28T07:57:58;-0.73;76.13
73509;SHT30;61750;55.036;73.312;2023-02-28T08:00:24;-0.74;76.02
73509;SHT30;61750;55.036;73.312;2023-02-28T08:03:00;-0.68;76.26
73509;SHT30;61750;55.036;73.312;2023-02-28T08:05:31;-0.73;76.22
73509;SHT30;61750;55.036;73.312;2023-02-28T08:07:58;-0.70;76.67
73509;SHT30;61750;55.036;73.312;2023-02-28T08:10:35;-0.73;76.27
73509;SHT30;61750;55.036;73.312;2023-02-28T08:13:01;-0.70;76.48
73509;SHT30;61750;55.036;73.312;2023-02-28T08:15:27;-0.70;76.34
73509;SHT30;61750;55.036;73.312;2023-02-28T08:17:58;-0.63;76.77
73509;SHT30;61750;55.036;73.312;2023-02-28T08:20:24;-0.65;76.73
73509;SHT30;61750;55.036;73.312;2023-02-28T08:22:58;-0.58;76.38
73509;SHT30;61750;55.036;73.312;2023-02-28T08:25:31;-0.52;76.28
73509;SHT30;61750;55.036;73.312;2023-02-28T08:27:57;-0.60;76.44
73509;SHT30;61750;55.036;73.312;2023-02-28T08:30:27;-0.59;76.93
73509;SHT30;61750;55.036;73.312;2023-02-28T08:32:58;-0.59;76.88
73509;SHT30;61750;55.036;73.312;2023-02-28T08:35:35;-0.56;77.07
73509;SHT30;61750;55.036;73.312;2023-02-28T08:38:01;-0.48;77.05
73509;SHT30;61750;55.036;73.312;2023-02-28T08:40:27;-0.43;76.91
73509;SHT30;61750;55.036;73.312;2023-02-28T08:43:01;-0.45;76.65
73509;SHT30;61750;55.036;73.312;2023-02-28T08:45:27;-0.50;76.91
73509;SHT30;61750;55.036;73.312;2023-02-28T08:47:58;-0.49;76.85
73509;SHT30;61750;55.036;73.312;2023-02-28T08:50:29;-0.42;77.02
73509;SHT30;61750;55.036;73.312;2023-02-28T08:53:00;-0.42;76.81
73509;SHT30;61750;55.036;73.312;2023-02-28T08:55:26;-0.38;76.87
73509;SHT30;61750;55.036;73.312;2023-02-28T08:58:02;-0.30;76.76
73509;SHT30;61750;55.036;73.312;2023-02-28T09:00:28;-0.25;76.55
73509;SHT30;61750;55.036;73.312;2023-02-28T09:02:58;-0.32;76.34
73509;SHT30;61750;55.036;73.312;2023-02-28T09:05:24;-0.21;76.49
73509;SHT30;61750;55.036;73.312;2023-02-28T09:07:58;-0.19;76.62
73509;SHT30;61750;55.036;73.312;2023-02-28T09:10:24;-0.21;76.43
73509;SHT30;61750;55.036;73.312;2023-02-28T09:12:58;-0.18;76.73
73509;SHT30;61750;55.036;73.312;2023-02-28T09:15:36;-0.19;76.72
73509;SHT30;61750;55.036;73.312;2023-02-28T09:18:02;-0.18;76.81
73509;SHT30;61750;55.036;73.312;2023-02-28T09:20:28;-0.25;77.06
73509;SHT30;61750;55.036;73.312;2023-02-28T09:22:58;-0.22;77.12
73509;SHT30;61750;55.036;73.312;2023-02-28T09:25:24;-0.22;76.98
73509;SHT30;61750;55.036;73.312;2023-02-28T09:28:00;-0.26;77.09
73509;SHT30;61750;55.036;73.312;2023-02-28T09:30:26;-0.28;77.07
73509;SHT30;61750;55.036;73.312;2023-02-28T09:32:58;-0.32;77.44
73509;SHT30;61750;55.036;73.312;2023-02-28T09:35:24;-0.29;77.53
73509;SHT30;61750;55.036;73.312;2023-02-28T09:38:11;-0.23;77.77
73509;SHT30;61750;55.036;73.312;2023-02-28T09:40:51;-0.15;77.48
73509;SHT30;61750;55.036;73.312;2023-02-28T09:43:33;-0.11;77.43
73509;SHT30;61750;55.036;73.312;2023-02-28T09:46:04;-0.09;77.22
73509;SHT30;61750;55.036;73.312;2023-02-28T09:48:32;-0.02;77.56
73509;SHT30;61750;55.036;73.312;2023-02-28T09:51:05;0.01;77.26
73509;SHT30;61750;55.036;73.312;2023-02-28T09:53:36;0.05;77.39
73509;SHT30;61750;55.036;73.312;2023-02-28T09:56:15;0.06;77.42
73509;SHT30;61750;55.036;73.312;2023-02-28T10:01:29;0.19;77.66
73509;SHT30;61750;55.036;73.312;2023-02-28T10:06:26;0.09;78.30
73509;SHT30;61750;55.036;73.312;2023-02-28T10:09:14;0.06;78.65
73509;SHT30;61750;55.036;73.312;2023-02-28T10:11:42;0.05;78.98
73509;SHT30;61750;55.036;73.312;2023-02-28T10:14:16;0.09;78.96
73509;SHT30;61750;55.036;73.312;2023-02-28T10:17:11;0.09;79.16
73509;SHT30;61750;55.036;73.312;2023-02-28T10:19:44;0.17;79.22
73509;SHT30;61750;55.036;73.312;2023-02-28T10:22:15;0.16;79.17
73509;SHT30;61750;55.036;73.312;2023-02-28T10:24:50;0.15;79.18
73509;SHT30;61750;55.036;73.312;2023-02-28T10:27:23;0.16;79.44
73509;SHT30;61750;55.036;73.312;2023-02-28T10:30:00;0.19;79.58
73509;SHT30;61750;55.036;73.312;2023-02-28T10:32:58;0.25;79.40
73509;SHT30;61750;55.036;73.312;2023-02-28T10:35:25;0.23;79.52
73509;SHT30;61750;55.036;73.312;2023-02-28T10:37:59;0.25;79.54
73509;SHT30;61750;55.036;73.312;2023-02-28T10:40:28;0.22;79.51
73509;SHT30;61750;55.036;73.312;2023-02-28T10:43:03;0.22;79.69
73509;SHT30;61750;55.036;73.312;2023-02-28T10:45:35;0.27;79.80
73509;SHT30;61750;55.036;73.312;2023-02-28T10:48:06;0.29;79.70
73509;SHT30;61750;55.036;73.312;2023-02-28T10:50:51;0.35;79.69
73509;SHT30;61750;55.036;73.312;2023-02-28T10:56:03;0.32;79.69
73509;SHT30;61750;55.036;73.312;2023-02-28T10:58:33;0.35;79.78
73509;SHT30;61750;55.036;73.312;2023-02-28T11:01:17;0.37;79.92
73509;SHT30;61750;55.036;73.312;2023-02-28T11:03:43;0.33;79.96
73509;SHT30;61750;55.036;73.312;2023-02-28T11:06:17;0.33;80.28
73509;SHT30;61750;55.036;73.312;2023-02-28T11:09:13;0.35;80.19
73509;SHT30;61750;55.036;73.312;2023-02-28T11:11:30;0.30;80.22
73509;SHT30;61750;55.036;73.312;2023-02-28T11:14:02;0.26;80.27
73509;SHT30;61750;55.036;73.312;2023-02-28T11:16:34;0.25;80.62
73509;SHT30;61750;55.036;73.312;2023-02-28T11:19:01;0.22;80.66
73509;SHT30;61750;55.036;73.312;2023-02-28T11:21:37;0.19;80.80
73509;SHT30;61750;55.036;73.312;2023-02-28T11:24:15;0.17;80.83
73509;SHT30;61750;55.036;73.312;2023-02-28T11:26:54;0.20;81.32
73509;SHT30;61750;55.036;73.312;2023-02-28T11:29:31;0.16;81.04
73509;SHT30;61750;55.036;73.312;2023-02-28T11:34:43;0.13;81.51
73509;SHT30;61750;55.036;73.312;2023-02-28T11:37:11;0.13;81.57
73509;SHT30;61750;55.036;73.312;2023-02-28T11:39:37;0.10;81.69
73509;SHT30;61750;55.036;73.312;2023-02-28T11:42:18;0.06;81.84
73509;SHT30;61750;55.036;73.312;2023-02-28T11:48:07;0.13;82.17
73509;SHT30;61750;55.036;73.312;2023-02-28T11:50:41;0.12;81.94
73509;SHT30;61750;55.036;73.312;2023-02-28T11:53:16;0.07;81.86
73509;SHT30;61750;55.036;73.312;2023-02-28T11:55:53;0.07;81.86
73509;SHT30;61750;55.036;73.312;2023-02-28T11:58:44;0.05;82.07
73509;SHT30;61750;55.036;73.312;2023-02-28T12:01:18;0.02;82.16
73509;SHT30;61750;55.036;73.312;2023-02-28T12:27:02;-0.08;81.73
73509;SHT30;61750;55.036;73.312;2023-02-28T12:32:39;-0.14;81.86
73509;SHT30;61750;55.036;73.312;2023-02-28T12:35:04;-0.11;81.92
73509;SHT30;61750;55.036;73.312;2023-02-28T12:43:25;-0.14;81.52
73509;SHT30;61750;55.036;73.312;2023-02-28T12:46:05;-0.12;81.80
73509;SHT30;61750;55.036;73.312;2023-02-28T12:48:46;-0.09;81.95
73509;SHT30;61750;55.036;73.312;2023-02-28T12:51:17;-0.17;82.09
73509;SHT30;61750;55.036;73.312;2023-02-28T12:53:54;-0.14;82.23
73509;SHT30;61750;55.036;73.312;2023-02-28T12:59:13;-0.18;82.24
73509;SHT30;61750;55.036;73.312;2023-02-28T13:01:56;-0.17;82.13
73509;SHT30;61750;55.036;73.312;2023-02-28T13:09:41;-0.15;81.89
73509;SHT30;61750;55.036;73.312;2023-02-28T13:12:58;-0.09;81.82
73509;SHT30;61750;55.036;73.312;2023-02-28T13:15:33;-0.09;81.74
73509;SHT30;61750;55.036;73.312;2023-02-28T13:18:19;-0.09;81.39
73509;SHT30;61750;55.036;73.312;2023-02-28T13:20:51;-0.12;81.37
73509;SHT30;61750;55.036;73.312;2023-02-28T13:26:23;-0.14;81.33
73509;SHT30;61750;55.036;73.312;2023-02-28T13:32:42;-0.09;81.38
73509;SHT30;61750;55.036;73.312;2023-02-28T13:34:47;-0.09;81.28
73509;SHT30;61750;55.036;73.312;2023-02-28T13:38:09;-0.14;81.20
73509;SHT30;61750;55.036;73.312;2023-02-28T13:40:38;-0.11;81.30
73509;SHT30;61750;55.036;73.312;2023-02-28T13:43:12;-0.11;81.24
73509;SHT30;61750;55.036;73.312;2023-02-28T13:48:37;-0.07;81.17
73509;SHT30;61750;55.036;73.312;2023-02-28T13:51:26;-0.08;81.06
73509;SHT30;61750;55.036;73.312;2023-02-28T13:54:01;-0.05;81.11
73509;SHT30;61750;55.036;73.312;2023-02-28T13:56:57;-0.04;81.17
73509;SHT30;61750;55.036;73.312;2023-02-28T13:59:35;-0.08;81.09
73509;SHT30;61750;55.036;73.312;2023-02-28T14:07:18;-0.05;81.01
73509;SHT30;61750;55.036;73.312;2023-02-28T14:09:48;-0.07;81.25
73509;SHT30;61750;55.036;73.312;2023-02-28T14:15:25;-0.08;81.18
73509;SHT30;61750;55.036;73.312;2023-02-28T14:17:59;-0.11;81.33
73509;SHT30;61750;55.036;73.312;2023-02-28T14:20:27;-0.09;81.39
73509;SHT30;61750;55.036;73.312;2023-02-28T14:25:34;-0.08;81.47
73509;SHT30;61750;55.036;73.312;2023-02-28T14:28:08;-0.08;81.40
73509;SHT30;61750;55.036;73.312;2023-02-28T14:36:23;-0.07;81.36
73509;SHT30;61750;55.036;73.312;2023-02-28T14:38:57;-0.08;81.50
73509;SHT30;61750;55.036;73.312;2023-02-28T14:41:32;-0.05;81.58
73509;SHT30;61750;55.036;73.312;2023-02-28T14:44:01;-0.04;81.43
73509;SHT30;61750;55.036;73.312;2023-02-28T14:46:37;-0.05;81.48
73509;SHT30;61750;55.036;73.312;2023-02-28T14:49:04;-0.05;81.61
73509;SHT30;61750;55.036;73.312;2023-02-28T14:51:31;-0.04;81.59
73509;SHT30;61750;55.036;73.312;2023-02-28T14:54:12;-0.04;81.61
73509;SHT30;61750;55.036;73.312;2023-02-28T14:56:39;-0.04;81.57
73509;SHT30;61750;55.036;73.312;2023-02-28T14:59:05;-0.08;81.64
73509;SHT30;61750;55.036;73.312;2023-02-28T15:01:48;-0.07;81.75
73509;SHT30;61750;55.036;73.312;2023-02-28T15:04:26;-0.05;81.66
73509;SHT30;61750;55.036;73.312;2023-02-28T15:07:36;0.01;81.82
73509;SHT30;61750;55.036;73.312;2023-02-28T15:12:59;-0.05;81.61
73509;SHT30;61750;55.036;73.312;2023-02-28T15:16:10;-0.02;81.71
73509;SHT30;61750;55.036;73.312;2023-02-28T15:20:44;0.02;81.61
73509;SHT30;61750;55.036;73.312;2023-02-28T15:23:10;-0.01;81.67
73509;SHT30;61750;55.036;73.312;2023-02-28T15:25:36;0.05;81.91
73509;SHT30;61750;55.036;73.312;2023-02-28T15:28:25;0.05;81.74
73509;SHT30;61750;55.036;73.312;2023-02-28T15:31:01;0.05;81.85
73509;SHT30;61750;55.036;73.312;2023-02-28T15:33:31;0.05;81.78
73509;SHT30;61750;55.036;73.312;2023-02-28T15:38:36;0.01;82.09
73509;SHT30;61750;55.036;73.312;2023-02-28T15:41:03;0.01;82.02
73509;SHT30;61750;55.036;73.312;2023-02-28T15:43:34;0.01;81.91
73509;SHT30;61750;55.036;73.312;2023-02-28T15:46:02;0.02;82.00
73509;SHT30;61750;55.036;73.312;2023-02-28T15:48:38;0.03;81.98
73509;SHT30;61750;55.036;73.312;2023-02-28T15:53:40;0.09;81.79
73509;SHT30;61750;55.036;73.312;2023-02-28T15:56:18;0.09;81.93
73509;SHT30;61750;55.036;73.312;2023-02-28T15:58:47;0.07;81.95
73509;SHT30;61750;55.036;73.312;2023-02-28T16:01:20;0.07;81.91
73509;SHT30;61750;55.036;73.312;2023-02-28T16:03:48;0.10;82.00
73509;SHT30;61750;55.036;73.312;2023-02-28T16:09:00;0.12;81.97
73509;SHT30;61750;55.036;73.312;2023-02-28T16:11:27;0.10;81.89
73509;SHT30;61750;55.036;73.312;2023-02-28T16:13:53;0.10;81.97
73509;SHT30;61750;55.036;73.312;2023-02-28T16:16:25;0.09;81.97
73509;SHT30;61750;55.036;73.312;2023-02-28T16:19:02;0.07;81.99
73509;SHT30;61750;55.036;73.312;2023-02-28T16:21:28;0.09;82.11
73509;SHT30;61750;55.036;73.312;2023-02-28T16:23:59;0.09;82.12
73509;SHT30;61750;55.036;73.312;2023-02-28T16:26:26;0.10;82.14
73509;SHT30;61750;55.036;73.312;2023-02-28T16:29:04;0.10;82.22
73509;SHT30;61750;55.036;73.312;2023-02-28T16:31:35;0.12;82.07
73509;SHT30;61750;55.036;73.312;2023-02-28T16:34:02;0.10;82.11
73509;SHT30;61750;55.036;73.312;2023-02-28T16:36:30;0.10;82.20
73509;SHT30;61750;55.036;73.312;2023-02-28T16:38:57;0.15;82.11
73509;SHT30;61750;55.036;73.312;2023-02-28T16:41:25;0.13;82.11
73509;SHT30;61750;55.036;73.312;2023-02-28T16:43:53;0.16;82.10
73509;SHT30;61750;55.036;73.312;2023-02-28T16:46:35;0.10;82.15
73509;SHT30;61750;55.036;73.312;2023-02-28T16:49:02;0.12;82.31
73509;SHT30;61750;55.036;73.312;2023-02-28T16:51:39;0.10;82.50
73509;SHT30;61750;55.036;73.312;2023-02-28T16:54:07;0.10;82.61
73509;SHT30;61750;55.036;73.312;2023-02-28T16:56:33;0.13;82.56
73509;SHT30;61750;55.036;73.312;2023-02-28T16:59:01;0.12;82.70
73509;SHT30;61750;55.036;73.312;2023-02-28T17:01:28;0.15;82.68
73509;SHT30;61750;55.036;73.312;2023-02-28T17:03:54;0.17;82.69
73509;SHT30;61750;55.036;73.312;2023-02-28T17:06:24;0.15;82.59
73509;SHT30;61750;55.036;73.312;2023-02-28T17:08:53;0.16;82.60
73509;SHT30;61750;55.036;73.312;2023-02-28T17:11:20;0.17;82.78
73509;SHT30;61750;55.036;73.312;2023-02-28T17:13:47;0.19;82.75
73509;SHT30;61750;55.036;73.312;2023-02-28T17:16:34;0.20;82.65
73509;SHT30;61750;55.036;73.312;2023-02-28T17:19:03;0.20;82.78
73509;SHT30;61750;55.036;73.312;2023-02-28T17:21:30;0.25;82.77
73509;SHT30;61750;55.036;73.312;2023-02-28T17:23:58;0.22;82.74
73509;SHT30;61750;55.036;73.312;2023-02-28T17:26:25;0.19;82.76
73509;SHT30;61750;55.036;73.312;2023-02-28T17:28:54;0.17;82.92
73509;SHT30;61750;55.036;73.312;2023-02-28T17:31:23;0.15;83.13
73509;SHT30;61750;55.036;73.312;2023-02-28T17:33:50;0.19;83.27
73509;SHT30;61750;55.036;73.312;2023-02-28T17:36:18;0.22;83.12
73509;SHT30;61750;55.036;73.312;2023-02-28T17:38:48;0.17;83.04
73509;SHT30;61750;55.036;73.312;2023-02-28T17:41:15;0.22;83.23
73509;SHT30;61750;55.036;73.312;2023-02-28T17:43:42;0.19;83.07
73509;SHT30;61750;55.036;73.312;2023-02-28T17:46:11;0.17;82.97
73509;SHT30;61750;55.036;73.312;2023-02-28T17:48:41;0.19;82.96